createdAt,value
2023-11-12T00:01:36.713Z,61623.09
2023-11-12T00:05:38.257Z,61623.09
2023-11-12T00:09:40.984Z,61623.09
2023-11-12T00:13:42.673Z,61623.09
2023-11-12T00:17:45.735Z,61623.09
2023-11-12T00:21:48.228Z,61623.09
2023-11-12T00:25:50.134Z,61623.09
2023-11-12T00:29:51.993Z,61623.09
2023-11-12T00:33:54.745Z,61623.09
2023-11-12T00:37:56.211Z,61623.09
2023-11-12T00:42:00.081Z,61623.09
2023-11-12T00:46:02.186Z,61623.09
2023-11-12T00:50:04.904Z,61623.09
2023-11-12T00:54:07.161Z,61623.09
2023-11-12T00:58:09.297Z,61623.09
2023-11-12T01:02:12.126Z,61623.09
2023-11-12T01:06:13.627Z,61623.09
2023-11-12T01:10:15.166Z,61623.09
2023-11-12T01:14:16.633Z,61623.09
2023-11-12T01:18:18.969Z,61623.09
2023-11-12T01:22:20.625Z,61623.09
2023-11-12T01:26:22.104Z,61623.09
2023-11-12T01:30:24.147Z,61623.09
2023-11-12T01:34:25.776Z,61623.09
2023-11-12T01:38:29.224Z,61623.09
2023-11-12T01:42:31.487Z,61623.09
2023-11-12T01:46:35.269Z,61623.09
2023-11-12T01:50:37.608Z,61623.09
2023-11-12T01:54:41.566Z,61623.09
2023-11-12T01:58:44.380Z,61623.09
2023-11-12T02:02:46.331Z,61623.09
2023-11-12T02:06:48.956Z,61623.09
2023-11-12T02:10:52.096Z,61623.09
2023-11-12T02:14:53.883Z,61623.09
2023-11-12T02:18:56.704Z,61623.09
2023-11-12T02:22:58.266Z,61623.09
2023-11-12T02:27:00.402Z,61623.09
2023-11-12T02:31:02.222Z,61623.09
2023-11-12T02:35:04.086Z,61623.09
2023-11-12T02:39:09.410Z,61623.09
2023-11-12T02:43:12.728Z,61623.09
2023-11-12T02:47:14.573Z,61623.09
2023-11-12T02:51:16.519Z,61623.09
2023-11-12T02:55:18.154Z,61623.09
2023-11-12T02:59:20.562Z,61623.09
2023-11-12T03:03:22.278Z,61623.09
2023-11-12T03:07:24.605Z,61623.09
2023-11-12T03:11:27.340Z,61623.09
2023-11-12T03:15:29.013Z,61623.09
2023-11-12T03:19:30.658Z,61623.09
2023-11-12T03:23:35.224Z,61623.09
2023-11-12T03:27:36.949Z,61623.09
2023-11-12T03:31:39.764Z,61623.09
2023-11-12T03:35:42.574Z,61623.09
2023-11-12T03:39:44.489Z,61623.09
2023-11-12T03:43:46.405Z,61623.09
2023-11-12T03:47:48.239Z,61623.09
2023-11-12T03:51:49.782Z,61623.09
2023-11-12T03:55:51.351Z,61623.09
2023-11-12T03:59:53.661Z,61623.09
2023-11-12T04:03:55.530Z,61623.09
2023-11-12T04:07:57.189Z,61623.09
2023-11-12T04:11:58.765Z,61623.09
2023-11-12T04:16:00.374Z,61623.09
2023-11-12T04:20:02.268Z,61623.09
2023-11-12T04:24:04.330Z,61623.09
2023-11-12T04:28:06.955Z,61623.09
2023-11-12T04:32:09.691Z,61623.09
2023-11-12T04:36:11.314Z,61623.09
2023-11-12T04:40:14.403Z,61623.09
2023-11-12T04:44:17.550Z,61623.09
2023-11-12T04:48:19.125Z,61623.09
2023-11-12T04:52:22.012Z,61623.09
2023-11-12T04:56:24.122Z,61623.09
2023-11-12T05:00:25.642Z,61623.09
2023-11-12T05:08:30.050Z,61623.09
2023-11-12T05:12:32.144Z,61623.09
2023-11-12T05:16:33.640Z,61623.09
2023-11-12T05:20:35.376Z,61623.09
2023-11-12T05:24:38.511Z,61623.09
2023-11-12T05:28:40.005Z,61623.09
2023-11-12T05:32:41.655Z,61623.09
2023-11-12T05:36:43.429Z,61623.09
2023-11-12T05:40:45.991Z,61623.09
2023-11-12T05:44:47.651Z,61623.09
2023-11-12T05:48:49.849Z,61623.09
2023-11-12T05:52:52.504Z,61623.09
2023-11-12T05:56:54.066Z,61623.09
2023-11-12T06:00:56.770Z,61623.09
2023-11-12T06:04:58.316Z,61623.09
2023-11-12T06:08:59.855Z,61623.09
2023-11-12T06:13:02.540Z,61623.09
2023-11-12T06:17:05.543Z,61623.09
2023-11-12T06:21:07.583Z,61623.09
2023-11-12T06:25:13.002Z,61623.09
2023-11-12T06:29:14.564Z,61623.09
2023-11-12T06:33:17.226Z,61623.09
2023-11-12T06:37:21.951Z,61623.09
2023-11-12T06:41:24.059Z,61623.09
2023-11-12T06:45:25.692Z,61623.09
2023-11-12T06:49:27.256Z,61623.09
2023-11-12T06:53:29.119Z,61623.09
2023-11-12T06:57:33.956Z,61623.09
2023-11-12T07:01:35.714Z,61623.09
2023-11-12T07:05:38.973Z,61623.09
2023-11-12T07:09:41.439Z,61623.09
2023-11-12T07:13:43.089Z,61623.09
2023-11-12T07:17:47.863Z,61623.09
2023-11-12T07:21:49.382Z,61623.09
2023-11-12T07:25:53.001Z,61623.09
2023-11-12T07:29:54.842Z,61623.09
2023-11-12T07:33:57.317Z,61623.09
2023-11-12T07:37:59.055Z,61623.09
2023-11-12T07:42:00.580Z,61623.09
2023-11-12T07:46:02.933Z,61623.09
2023-11-12T07:50:06.283Z,61623.09
2023-11-12T07:54:08.179Z,61623.09
2023-11-12T07:58:10.214Z,61623.09
2023-11-12T08:02:14.946Z,61623.09
2023-11-12T08:06:16.855Z,61623.09
2023-11-12T08:10:19.885Z,61623.09
2023-11-12T08:14:21.664Z,61623.09
2023-11-12T08:18:23.601Z,61623.09
2023-11-12T08:22:25.028Z,61623.09
2023-11-12T08:26:28.869Z,61623.09
2023-11-12T08:30:30.767Z,61623.09
2023-11-12T08:34:32.949Z,61623.09
2023-11-12T08:38:36.286Z,61623.09
2023-11-12T08:42:37.879Z,61623.09
2023-11-12T08:46:39.506Z,61623.09
2023-11-12T08:50:41.421Z,61623.09
2023-11-12T08:54:44.016Z,61623.09
2023-11-12T08:58:47.286Z,61623.09
2023-11-12T09:02:48.995Z,61623.09
2023-11-12T09:06:50.508Z,61623.09
2023-11-12T09:10:52.848Z,61623.09
2023-11-12T09:14:54.799Z,61623.09
2023-11-12T09:18:56.623Z,61623.09
2023-11-12T09:22:58.684Z,61623.09
2023-11-12T09:27:00.221Z,61623.09
2023-11-12T09:31:02.249Z,61623.09
2023-11-12T09:35:06.919Z,61623.09
2023-11-12T09:39:19.259Z,61623.09
2023-11-12T09:43:20.835Z,61623.09
2023-11-12T09:47:22.351Z,61623.09
2023-11-12T09:51:25.061Z,61623.09
2023-11-12T09:55:26.669Z,61623.09
2023-11-12T09:59:28.452Z,61623.09
2023-11-12T10:03:30.095Z,61623.09
2023-11-12T10:07:32.115Z,61623.09
2023-11-12T10:11:33.575Z,61623.09
2023-11-12T10:15:35.762Z,61623.09
2023-11-12T10:19:39.289Z,61623.09
2023-11-12T10:23:41.127Z,61623.09
2023-11-12T10:27:55.428Z,61623.09
2023-11-12T10:31:58.414Z,61623.09
2023-11-12T10:36:07.772Z,61623.09
2023-11-12T10:40:10.649Z,61623.09
2023-11-12T10:44:12.729Z,61623.09
2023-11-12T10:48:18.725Z,61623.09
2023-11-12T10:52:20.669Z,61623.09
2023-11-12T10:56:23.265Z,61623.09
2023-11-12T11:00:25.903Z,61623.09
2023-11-12T11:04:30.616Z,61623.09
2023-11-12T11:08:32.907Z,61623.09
2023-11-12T11:12:35.227Z,61623.09
2023-11-12T11:16:47.360Z,61623.09
2023-11-12T11:21:04.750Z,61623.09
2023-11-12T11:25:24.981Z,61623.09
2023-11-12T11:29:27.452Z,61623.09
2023-11-12T11:33:29.304Z,61623.09
2023-11-12T11:37:49.646Z,61623.09
2023-11-12T11:41:54.836Z,61623.09
2023-11-12T11:46:10.373Z,61623.09
2023-11-12T11:50:12.042Z,61623.09
2023-11-12T11:54:17.409Z,61623.09
2023-11-12T11:58:21.020Z,61623.09
2023-11-12T12:02:23.597Z,61623.09
2023-11-12T12:06:28.613Z,61623.09
2023-11-12T12:10:32.807Z,61623.09
2023-11-12T12:14:36.436Z,61623.09
2023-11-12T12:18:38.269Z,61623.09
2023-11-12T12:22:40.850Z,61623.09
2023-11-12T12:26:42.629Z,61623.09
2023-11-12T12:30:50.940Z,61623.09
2023-11-12T12:35:01.969Z,61623.09
2023-11-12T12:39:11.896Z,61623.09
2023-11-12T12:43:16.237Z,61623.09
2023-11-12T13:13:34.052Z,99983.34
2023-11-12T13:17:38.526Z,99987.53
2023-11-12T13:21:53.931Z,99990.44
2023-11-12T13:26:01.662Z,99996.38
2023-11-12T13:30:06.410Z,99997.91
2023-11-12T13:34:08.220Z,99997.63
2023-11-12T13:38:11.386Z,99996.63
2023-11-12T13:42:13.053Z,99994.31
2023-11-12T13:46:15.702Z,99998.59
2023-11-12T13:50:17.917Z,99995.75
2023-11-12T13:54:20.479Z,100008.25
2023-11-12T13:58:23.489Z,99997.31
2023-11-12T14:02:27.528Z,99998.19
2023-11-12T14:06:29.624Z,100005.06
2023-11-12T14:10:32.283Z,100008.44
2023-11-12T14:14:34.657Z,100018.41
2023-11-12T14:18:36.145Z,100014.34
2023-11-12T14:22:38.266Z,100019.97
2023-11-12T14:26:40.778Z,100017.28
2023-11-12T14:30:42.554Z,100026.22
2023-11-12T14:34:47.880Z,100028.34
2023-11-12T14:38:49.906Z,100034.78
2023-11-12T14:42:51.929Z,100043.88
2023-11-12T14:46:54.042Z,100043.69
2023-11-12T14:50:55.936Z,100045.78
2023-11-12T14:54:58.798Z,100050.47
2023-11-12T14:59:00.751Z,100054.84
2023-11-12T15:03:06.985Z,100056.47
2023-11-12T15:07:10.388Z,100061.38
2023-11-12T15:11:12.775Z,100055.22
2023-11-12T15:15:14.687Z,100069.56
2023-11-12T15:19:16.370Z,100069.22
2023-11-12T15:23:18.084Z,100073.78
2023-11-12T15:27:19.934Z,100077.97
2023-11-12T15:31:21.731Z,100082.75
2023-11-12T15:35:24.851Z,100079.16
2023-11-12T15:39:26.662Z,100079.28
2023-11-12T15:43:31.566Z,100074.59
2023-11-12T15:47:33.471Z,100072.25
2023-11-12T15:51:35.647Z,100074.09
2023-11-12T15:55:37.272Z,100087.63
2023-11-12T15:59:39.065Z,100078.19
2023-11-12T16:03:40.932Z,100085.31
2023-11-12T16:07:45.989Z,100087.41
2023-11-12T16:11:47.604Z,100089.59
2023-11-12T16:15:49.689Z,100089.13
2023-11-12T16:19:52.665Z,100099.69
2023-11-12T16:23:54.157Z,100097.81
2023-11-12T16:27:56.438Z,100101.31
2023-11-12T16:32:10.718Z,100102.00
2023-11-12T16:36:13.504Z,100101.91
2023-11-12T16:40:16.143Z,100109.22
2023-11-12T16:44:19.381Z,100109.34
2023-11-12T16:48:20.949Z,100105.50
2023-11-12T16:52:23.224Z,100108.88
2023-11-12T16:56:25.125Z,100114.56
2023-11-12T17:00:31.776Z,100110.34
2023-11-12T17:04:33.979Z,100112.56
2023-11-12T17:08:37.948Z,100113.19
2023-11-12T17:12:39.570Z,100113.38
2023-11-12T17:16:47.925Z,100125.94
2023-11-12T17:20:50.100Z,100138.28
2023-11-12T17:24:51.893Z,100128.31
2023-11-12T17:28:53.883Z,100133.97
2023-11-12T17:32:59.144Z,100138.56
2023-11-12T17:37:01.437Z,100141.03
2023-11-12T17:41:04.659Z,100137.00
2023-11-12T17:45:09.496Z,100141.91
2023-11-12T17:49:12.455Z,100140.34
2023-11-12T17:53:14.010Z,100137.16
2023-11-12T17:57:15.675Z,100141.03
2023-11-12T18:01:19.993Z,100145.59
2023-11-12T18:05:21.753Z,100142.00
2023-11-12T18:09:24.505Z,100136.56
2023-11-12T18:13:25.934Z,100134.72
2023-11-12T18:17:27.810Z,100137.88
2023-11-12T18:21:30.181Z,100142.78
2023-11-12T18:25:37.809Z,100143.91
2023-11-12T18:29:39.343Z,100148.44
2023-11-12T18:33:42.428Z,100150.78
2023-11-12T18:37:46.788Z,100156.28
2023-11-12T18:41:48.637Z,100154.47
2023-11-12T18:45:54.406Z,100147.59
2023-11-12T18:49:55.969Z,100160.84
2023-11-12T18:53:59.586Z,100156.19
2023-11-12T18:58:01.436Z,100159.25
2023-11-12T19:06:39.155Z,100159.25
2023-11-12T19:10:41.543Z,100158.44
2023-11-12T19:14:43.074Z,100168.78
2023-11-12T19:18:44.789Z,100167.03
2023-11-12T19:22:47.645Z,100163.50
2023-11-12T19:26:51.772Z,100169.97
2023-11-12T19:30:53.428Z,100173.69
2023-11-12T19:34:55.031Z,100172.88
2023-11-12T19:38:56.475Z,100178.81
2023-11-12T19:42:58.254Z,100177.06
2023-11-12T19:46:59.903Z,100188.81
2023-11-12T19:51:01.591Z,100185.06
2023-11-12T19:55:05.226Z,100195.91
2023-11-12T19:59:07.906Z,100197.84
2023-11-12T20:03:09.511Z,100205.19
2023-11-12T20:07:11.213Z,100206.44
2023-11-12T20:11:14.616Z,100213.84
2023-11-12T20:15:16.498Z,100221.72
2023-11-12T20:19:20.480Z,100227.97
2023-11-12T20:23:22.330Z,100233.31
2023-11-12T20:27:23.960Z,100244.66
2023-11-12T20:31:25.766Z,100244.16
2023-11-12T20:35:27.920Z,100242.22
2023-11-12T20:39:29.341Z,100248.25
2023-11-12T20:43:31.350Z,100251.50
2023-11-12T20:47:33.583Z,100252.22
2023-11-12T20:51:35.390Z,100258.47
2023-11-12T20:55:40.255Z,100259.28
2023-11-12T20:59:44.007Z,100255.09
2023-11-12T21:03:45.507Z,100256.75
2023-11-12T21:07:47.131Z,100255.63
2023-11-12T21:11:49.256Z,100261.56
2023-11-12T21:15:54.103Z,100256.03
2023-11-12T21:19:55.572Z,100246.00
2023-11-12T21:23:57.188Z,100247.34
2023-11-12T21:27:58.714Z,100248.59
2023-11-12T21:32:01.452Z,100247.16
2023-11-12T21:36:02.918Z,100246.81
2023-11-12T21:40:04.570Z,100242.88
2023-11-12T21:44:08.926Z,100255.72
2023-11-12T21:48:12.196Z,100250.16
2023-11-12T21:52:13.956Z,100247.09
2023-11-12T21:56:15.554Z,100248.94
2023-11-12T22:00:17.473Z,100246.53
2023-11-12T22:04:20.345Z,100243.53
2023-11-12T22:08:23.778Z,100258.75
2023-11-12T22:12:25.457Z,100268.00
2023-11-12T22:16:27.632Z,100263.28
2023-11-12T22:20:31.235Z,100256.63
2023-11-12T22:24:32.725Z,100255.06
2023-11-12T22:28:34.307Z,100262.53
2023-11-12T22:32:35.814Z,100260.69
2023-11-12T22:36:37.472Z,100270.41
2023-11-12T22:40:39.033Z,100280.94
2023-11-12T22:44:40.713Z,100286.75
2023-11-12T22:48:42.316Z,100297.38
2023-11-12T22:52:44.348Z,100289.66
2023-11-12T22:56:45.890Z,100285.47
2023-11-12T23:00:49.937Z,100300.00
2023-11-12T23:04:52.650Z,100310.13
2023-11-12T23:08:54.190Z,100304.28
2023-11-12T23:12:55.683Z,100311.63
2023-11-12T23:16:57.611Z,100314.41
2023-11-12T23:21:06.913Z,100323.78
2023-11-12T23:25:12.449Z,100332.16
2023-11-12T23:29:14.039Z,100333.13
2023-11-12T23:33:15.652Z,100334.13
2023-11-12T23:37:18.162Z,100324.38
2023-11-12T23:41:20.027Z,100323.72
2023-11-12T23:45:21.649Z,100314.44
2023-11-12T23:49:23.080Z,100311.06
2023-11-12T23:53:24.836Z,100319.69
2023-11-12T23:57:26.392Z,100319.03
